Time;durP1;ratioP1;P1;durP2;ratioP2;P2;SDS_P1;SDS_P2;PMS_P1;PMS_P2;Temp;Humidity;BMP_temperature;BMP_pressure;BME280_temperature;BME280_humidity;BME280_pressure;Samples;Min_cycle;Max_cycle;Signal;HPM_P1;HPM_P2
2021/06/21 00:01:19;;;;;;;9.30;4.13;;;;;;;32.24;28.54;94169.63;5096287;28;20051;-64
2021/06/21 00:03:48;;;;;;;7.68;4.38;;;;;;;31.99;28.80;94176.47;5095853;28;20047;-57
2021/06/21 00:06:15;;;;;;;5.35;4.10;;;;;;;31.83;28.96;94173.84;5096135;28;20063;-64
2021/06/21 00:08:43;;;;;;;6.90;4.60;;;;;;;32.10;28.63;94170.78;5096422;28;20062;-65
2021/06/21 00:11:10;;;;;;;4.35;3.80;;;;;;;31.72;29.09;94166.00;5094760;28;20040;-61
2021/06/21 00:13:37;;;;;;;5.03;4.10;;;;;;;31.66;29.64;94170.38;5096384;28;20043;-63
2021/06/21 00:16:04;;;;;;;5.63;4.22;;;;;;;31.57;29.68;94156.75;5095909;28;20044;-61
2021/06/21 00:18:31;;;;;;;5.88;4.30;;;;;;;31.74;29.14;94160.94;5096407;28;20051;-64
2021/06/21 00:20:58;;;;;;;8.38;3.92;;;;;;;31.68;29.41;94159.91;5095804;28;20048;-54
2021/06/21 00:23:25;;;;;;;10.23;4.57;;;;;;;31.96;28.94;94149.53;5094402;28;20061;-53
2021/06/21 00:25:53;;;;;;;8.52;3.90;;;;;;;31.78;29.01;94145.41;5095760;28;20733;-61
2021/06/21 00:28:20;;;;;;;5.40;3.67;;;;;;;31.69;28.90;94147.91;5115346;28;20049;-56
2021/06/21 00:30:47;;;;;;;3.55;3.13;;;;;;;31.74;28.74;94139.31;5084702;28;20040;-56
2021/06/21 00:33:15;;;;;;;5.28;3.72;;;;;;;31.46;29.40;94129.97;5096381;28;20051;-56
2021/06/21 00:35:43;;;;;;;5.15;3.55;;;;;;;31.75;29.12;94135.44;5095587;28;20351;-55
2021/06/21 00:38:10;;;;;;;4.32;3.50;;;;;;;31.75;29.00;94130.03;5095792;28;20055;-64
2021/06/21 00:40:38;;;;;;;4.85;3.00;;;;;;;31.66;29.11;94127.16;5094931;28;20040;-65
2021/06/21 00:43:06;;;;;;;4.30;3.20;;;;;;;31.49;28.99;94133.78;5095738;28;20055;-63
2021/06/21 00:45:33;;;;;;;4.45;3.72;;;;;;;31.49;29.31;94136.47;5095353;28;20078;-53
2021/06/21 00:48:00;;;;;;;4.28;3.42;;;;;;;31.16;29.84;94133.84;5095629;28;20056;-62
2021/06/21 00:50:28;;;;;;;5.78;3.20;;;;;;;31.57;29.45;94129.72;5095552;28;20051;-65
2021/06/21 00:52:58;;;;;;;8.05;3.30;;;;;;;31.59;29.26;94127.34;5095657;28;20056;-57
2021/06/21 00:55:27;;;;;;;3.55;3.25;;;;;;;31.44;29.41;94137.00;5095099;28;20473;-58
2021/06/21 00:57:55;;;;;;;6.57;3.15;;;;;;;31.75;29.09;94130.03;5110931;28;20060;-65
2021/06/21 01:00:24;;;;;;;5.07;2.83;;;;;;;31.40;28.92;94137.09;5106138;28;20051;-59
2021/06/21 01:02:52;;;;;;;3.70;3.05;;;;;;;30.45;30.85;94135.44;5083115;28;20048;-60
2021/06/21 01:05:22;;;;;;;3.35;3.03;;;;;;;31.19;29.86;94140.31;5081134;28;20074;-59
2021/06/21 01:07:49;;;;;;;5.15;3.30;;;;;;;30.91;30.31;94139.81;5095183;28;20043;-55
2021/06/21 01:10:19;;;;;;;4.68;2.90;;;;;;;31.04;29.71;94139.91;5094977;28;20336;-56
2021/06/21 01:12:49;;;;;;;4.13;3.08;;;;;;;30.65;30.52;94133.47;5077573;28;20529;-63
2021/06/21 01:15:20;;;;;;;3.88;3.15;;;;;;;30.95;30.37;94139.72;5094874;28;20378;-60
2021/06/21 01:17:51;;;;;;;;;;;;;;;30.69;31.04;94133.38;5077755;28;20040;-54
2021/06/21 01:20:28;;;;;;;5.30;4.07;;;;;;;30.80;30.58;94133.91;5094880;28;19916;-59
2021/06/21 01:23:32;;;;;;;5.28;3.67;;;;;;;30.70;30.88;94129.50;5072850;28;20040;-59
2021/06/21 01:26:08;;;;;;;6.00;3.70;;;;;;;31.05;30.08;94130.63;5085466;28;20055;-52
2021/06/21 01:29:09;;;;;;;4.32;3.40;;;;;;;31.03;29.88;94134.91;5086356;28;20052;-56
2021/06/21 01:32:08;;;;;;;5.75;3.33;;;;;;;30.79;30.43;94142.41;5088633;28;20383;-58
2021/06/21 01:34:37;;;;;;;3.75;3.35;;;;;;;31.27;29.45;94145.13;5074646;28;20444;-60
2021/06/21 01:37:05;;;;;;;5.57;3.55;;;;;;;30.69;30.67;94133.38;5076744;28;20381;-54
2021/06/21 01:39:34;;;;;;;5.40;3.13;;;;;;;30.93;30.22;94136.69;5094444;28;20481;-55
2021/06/21 01:42:10;;;;;;;4.03;3.05;;;;;;;31.10;29.77;94146.28;5094657;28;20048;-63
2021/06/21 01:44:41;;;;;;;4.88;3.42;;;;;;;30.57;30.63;94142.88;5076869;28;20048;-56
2021/06/21 01:47:09;;;;;;;3.72;3.15;;;;;;;31.20;29.60;94145.28;5094683;28;20059;-58
2021/06/21 01:49:39;;;;;;;5.25;3.30;;;;;;;30.89;29.90;94152.97;5076804;28;20040;-58
2021/06/21 01:52:10;;;;;;;4.05;3.28;;;;;;;30.89;29.78;94149.50;5094659;28;20474;-56
2021/06/21 01:54:41;;;;;;;8.10;3.47;;;;;;;31.24;29.21;94145.22;5094654;28;20343;-57
2021/06/21 01:57:08;;;;;;;5.75;3.47;;;;;;;31.06;29.72;94145.63;5094401;28;20331;-62
2021/06/21 01:59:35;;;;;;;3.53;3.20;;;;;;;31.20;29.27;94142.59;5113822;28;20044;-56
2021/06/21 02:02:05;;;;;;;8.40;3.80;;;;;;;30.80;29.90;94141.25;5094460;28;20397;-55
2021/06/21 02:04:35;;;;;;;7.60;3.80;;;;;;;30.00;30.99;94138.66;5076773;28;20062;-59
2021/06/21 02:07:03;;;;;;;6.38;3.17;;;;;;;29.94;31.27;94134.16;5077702;28;20356;-55
2021/06/21 02:09:31;;;;;;;9.75;3.35;;;;;;;30.17;30.89;94141.41;5074390;28;20048;-53
2021/06/21 02:11:59;;;;;;;8.00;3.55;;;;;;;30.02;31.31;94149.78;5094561;28;20363;-55
2021/06/21 02:14:28;;;;;;;4.85;3.47;;;;;;;30.04;31.32;94146.69;5076732;28;20059;-57
2021/06/21 02:16:57;;;;;;;4.60;3.42;;;;;;;30.16;31.20;94156.81;5094395;28;20052;-59
2021/06/21 02:19:27;;;;;;;3.60;3.22;;;;;;;30.48;30.46;94156.19;5060008;28;20048;-59
2021/06/21 02:21:54;;;;;;;4.45;3.38;;;;;;;30.57;30.58;94163.69;5094013;28;20055;-56
2021/06/21 02:24:21;;;;;;;4.63;3.35;;;;;;;30.36;30.44;94162.97;5094414;28;20079;-61
2021/06/21 02:26:49;;;;;;;6.10;3.28;;;;;;;30.14;30.65;94148.41;5082397;28;20044;-58
2021/06/21 02:29:20;;;;;;;4.47;3.60;;;;;;;30.39;30.29;94145.19;5096858;28;20050;-62
2021/06/21 02:31:47;;;;;;;5.53;3.38;;;;;;;29.97;30.97;94138.72;5078093;28;20071;-64
2021/06/21 02:34:14;;;;;;;5.85;3.47;;;;;;;30.62;29.80;94141.63;5095941;28;20048;-61
2021/06/21 02:36:43;;;;;;;4.60;3.33;;;;;;;30.30;30.37;94150.41;5097839;28;20050;-61
2021/06/21 02:39:10;;;;;;;4.53;3.17;;;;;;;29.97;30.84;94150.25;5098100;28;20051;-64
2021/06/21 02:41:38;;;;;;;3.67;3.38;;;;;;;30.58;29.64;94157.88;5096624;28;20039;-58
2021/06/21 02:44:06;;;;;;;4.55;3.20;;;;;;;29.65;31.13;94156.25;5097938;28;20358;-55
2021/06/21 02:46:33;;;;;;;5.18;3.20;;;;;;;28.95;32.09;94158.19;5094007;28;20048;-59
2021/06/21 02:49:00;;;;;;;5.10;3.63;;;;;;;29.29;32.06;94153.41;5083466;28;20059;-55
2021/06/21 02:51:52;;;;;;;6.20;3.65;;;;;;;28.88;32.66;94148.28;5082607;28;20051;-60
2021/06/21 02:54:32;;;;;;;4.35;3.40;;;;;;;29.11;32.06;94140.22;5080386;28;20055;-58
2021/06/21 02:57:15;;;;;;;4.10;3.45;;;;;;;28.56;32.96;94143.34;5087160;28;20059;-56
2021/06/21 02:59:44;;;;;;;5.78;3.90;;;;;;;28.94;32.22;94138.59;5118265;28;20358;-54
2021/06/21 03:02:14;;;;;;;5.68;3.47;;;;;;;29.10;31.93;94127.94;5088834;28;20056;-53
2021/06/21 03:04:45;;;;;;;6.18;4.00;;;;;;;28.66;32.47;94134.38;5097525;28;20493;-56
2021/06/21 03:07:14;;;;;;;7.78;4.35;;;;;;;28.76;32.54;94130.78;5097396;28;20362;-56
2021/06/21 03:09:46;;;;;;;4.35;3.85;;;;;;;28.97;32.69;94134.31;5079749;28;20058;-63
2021/06/21 03:12:15;;;;;;;7.07;3.90;;;;;;;28.89;32.38;94132.91;5079248;28;20439;-62
2021/06/21 03:14:46;;;;;;;5.82;3.55;;;;;;;28.70;32.15;94132.41;5076062;28;20436;-53
2021/06/21 03:17:14;;;;;;;9.65;3.80;;;;;;;28.73;32.66;94130.81;5108915;28;20044;-59
2021/06/21 03:19:43;;;;;;;8.25;3.78;;;;;;;28.51;33.14;94125.00;5080000;28;20059;-66
2021/06/21 03:22:10;;;;;;;6.13;3.70;;;;;;;28.96;32.40;94120.13;5079455;28;20455;-58
2021/06/21 03:24:38;;;;;;;5.13;4.00;;;;;;;28.84;32.38;94126.03;5097511;28;20048;-55
2021/06/21 03:27:06;;;;;;;7.03;3.80;;;;;;;28.53;32.84;94128.03;5087769;28;20043;-62
2021/06/21 03:29:36;;;;;;;7.10;4.00;;;;;;;28.85;32.33;94128.34;5117654;28;20047;-63
2021/06/21 03:32:25;;;;;;;9.02;3.88;;;;;;;27.84;34.28;94130.03;5108006;28;20071;-64
2021/06/21 03:34:57;;;;;;;6.68;4.35;;;;;;;28.40;33.71;94135.16;5097051;28;20040;-65
2021/06/21 03:37:25;;;;;;;7.78;5.05;;;;;;;28.53;33.04;94133.41;5096783;28;20055;-66
2021/06/21 03:39:52;;;;;;;9.55;4.38;;;;;;;28.48;33.03;94131.19;5097011;28;20047;-61
2021/06/21 03:42:19;;;;;;;7.95;4.43;;;;;;;28.40;33.21;94135.16;5096686;28;20455;-66
2021/06/21 03:44:47;;;;;;;8.23;4.38;;;;;;;28.53;33.24;94134.19;5078787;28;20056;-63
2021/06/21 03:47:14;;;;;;;6.88;4.47;;;;;;;28.25;33.93;94129.19;5096125;28;20040;-65
2021/06/21 03:49:43;;;;;;;6.82;4.13;;;;;;;28.59;33.39;94136.41;5097031;28;20052;-65
2021/06/21 03:52:10;;;;;;;6.45;4.50;;;;;;;28.53;33.89;94138.78;5096382;28;20048;-59
2021/06/21 03:54:38;;;;;;;6.55;4.45;;;;;;;28.39;34.19;94145.13;5096666;28;20074;-65
2021/06/21 03:57:06;;;;;;;7.85;4.85;;;;;;;29.02;33.39;94153.44;5099887;28;20047;-56
2021/06/21 03:59:34;;;;;;;8.27;4.07;;;;;;;28.87;33.27;94157.53;5117332;28;20446;-60
2021/06/21 04:02:01;;;;;;;6.68;4.45;;;;;;;28.86;33.65;94156.75;5108847;28;20052;-60
2021/06/21 04:04:28;;;;;;;5.07;4.10;;;;;;;28.83;34.04;94162.16;5095960;28;20051;-49
2021/06/21 04:06:55;;;;;;;4.88;4.20;;;;;;;28.94;34.42;94167.44;5094918;28;20044;-52
2021/06/21 04:09:22;;;;;;;9.85;4.22;;;;;;;29.08;34.13;94156.44;5096419;28;20052;-52
2021/06/21 04:11:50;;;;;;;4.80;3.80;;;;;;;29.75;33.08;94160.69;5090911;28;20047;-45
2021/06/21 04:14:17;;;;;;;4.18;3.78;;;;;;;30.17;32.07;94157.59;5095369;28;20048;-46
2021/06/21 04:16:45;;;;;;;7.90;4.00;;;;;;;30.10;32.45;94157.75;5095872;28;20439;-40
2021/06/21 04:19:12;;;;;;;5.18;3.35;;;;;;;29.86;32.80;94152.38;5096239;28;20466;-40
2021/06/21 04:21:39;;;;;;;4.28;3.40;;;;;;;29.90;32.63;94144.22;5094636;28;20059;-42
2021/06/21 04:24:07;;;;;;;7.88;3.50;;;;;;;30.53;31.69;94136.81;5096023;28;20063;-46
2021/06/21 04:26:35;;;;;;;3.90;3.40;;;;;;;29.84;33.21;94146.66;5100079;28;20055;-41
2021/06/21 04:29:02;;;;;;;7.90;3.65;;;;;;;30.50;32.21;94148.44;5112563;28;20052;-42
2021/06/21 04:31:30;;;;;;;3.65;3.05;;;;;;;30.27;32.81;94151.22;5095220;28;20047;-47
2021/06/21 04:33:57;;;;;;;4.97;3.40;;;;;;;30.64;32.17;94148.13;5095863;28;20059;-46
2021/06/21 04:36:24;;;;;;;5.60;3.30;;;;;;;30.81;32.25;94145.47;5095660;28;20051;-43
2021/06/21 04:38:51;;;;;;;3.95;3.30;;;;;;;30.19;33.52;94145.25;5095899;28;20055;-42
2021/06/21 04:41:19;;;;;;;5.47;3.60;;;;;;;30.34;33.11;94154.53;5087079;28;20055;-44
2021/06/21 04:43:46;;;;;;;6.60;4.10;;;;;;;30.39;33.23;94153.28;5095861;28;20048;-47
2021/06/21 04:46:14;;;;;;;5.47;4.20;;;;;;;30.52;32.96;94166.88;5095430;28;20055;-45
2021/06/21 04:48:42;;;;;;;4.22;3.80;;;;;;;30.62;32.99;94166.66;5095699;28;20059;-45
2021/06/21 04:51:10;;;;;;;7.60;3.95;;;;;;;30.59;32.99;94167.47;5095673;28;20462;-45
2021/06/21 04:53:37;;;;;;;4.80;3.95;;;;;;;30.43;33.58;94175.53;5095422;28;20374;-45
2021/06/21 04:56:04;;;;;;;5.80;4.05;;;;;;;30.65;32.96;94176.63;5095001;28;20048;-48
2021/06/21 04:58:34;;;;;;;6.68;4.38;;;;;;;30.76;32.86;94176.41;5114565;28;20059;-45
2021/06/21 05:01:02;;;;;;;4.65;3.97;;;;;;;30.50;33.12;94178.09;5102249;28;20044;-45
2021/06/21 05:03:29;;;;;;;8.07;4.68;;;;;;;29.95;33.92;94184.94;5089505;28;20051;-47
2021/06/21 05:05:56;;;;;;;5.85;3.75;;;;;;;30.49;32.93;94183.91;5078534;28;20055;-46
2021/06/21 05:08:24;;;;;;;5.07;4.18;;;;;;;30.33;33.11;94184.59;5095473;28;20055;-49
2021/06/21 05:10:51;;;;;;;4.97;3.88;;;;;;;30.71;32.51;94184.22;5076688;28;20040;-47
2021/06/21 05:13:18;;;;;;;5.30;4.70;;;;;;;30.29;32.96;94186.63;5095089;28;20355;-45
2021/06/21 05:15:45;;;;;;;7.85;5.43;;;;;;;30.59;32.28;94180.97;5094992;28;20043;-46
2021/06/21 05:18:12;;;;;;;5.28;4.70;;;;;;;31.03;32.05;94189.66;5089117;28;20052;-46
2021/06/21 05:20:40;;;;;;;5.60;5.05;;;;;;;31.22;31.31;94180.72;5073857;28;20119;-46
2021/06/21 05:23:07;;;;;;;7.57;5.10;;;;;;;31.01;31.76;94197.44;5090540;28;20051;-45
2021/06/21 05:25:35;;;;;;;7.13;5.30;;;;;;;31.80;30.37;94196.31;5094831;28;20051;-45
2021/06/21 05:28:03;;;;;;;6.10;5.50;;;;;;;31.17;31.35;94207.47;5094078;28;20067;-46
2021/06/21 05:30:30;;;;;;;6.57;5.20;;;;;;;30.93;31.62;94190.66;5095050;28;20063;-46
2021/06/21 05:32:57;;;;;;;7.40;5.20;;;;;;;31.06;32.10;94202.31;5094778;28;20043;-45
2021/06/21 05:35:25;;;;;;;7.63;5.60;;;;;;;31.33;31.34;94201.34;5094886;28;20059;-47
2021/06/21 05:37:53;;;;;;;10.00;5.82;;;;;;;31.57;31.21;94205.34;5094584;28;20370;-47
2021/06/21 05:40:20;;;;;;;8.55;5.70;;;;;;;31.59;31.62;94208.41;5085937;28;20048;-45
2021/06/21 05:42:48;;;;;;;6.30;5.65;;;;;;;31.71;30.86;94213.13;5086997;28;20062;-46
2021/06/21 05:45:17;;;;;;;7.22;5.35;;;;;;;31.86;30.61;94205.41;5094876;28;20462;-46
2021/06/21 05:47:45;;;;;;;9.13;5.70;;;;;;;32.59;30.01;94197.63;5076778;28;20047;-46
2021/06/21 05:50:13;;;;;;;7.10;6.03;;;;;;;32.33;30.12;94200.31;5077981;28;20052;-46
2021/06/21 05:52:40;;;;;;;6.35;5.70;;;;;;;32.31;30.05;94199.22;5085544;28;20055;-45
2021/06/21 05:55:08;;;;;;;9.65;5.35;;;;;;;32.70;29.24;94195.34;5094662;28;20051;-46
2021/06/21 05:57:35;;;;;;;8.25;5.40;;;;;;;32.51;29.71;94195.13;5093475;28;20063;-45
2021/06/21 06:00:05;;;;;;;6.85;5.78;;;;;;;32.36;29.78;94204.84;5093520;28;20378;-51
2021/06/21 06:02:33;;;;;;;9.88;5.55;;;;;;;32.61;29.67;94197.97;5094469;28;20056;-50
2021/06/21 06:05:01;;;;;;;8.32;5.53;;;;;;;32.99;29.67;94196.03;5094450;28;20060;-45
2021/06/21 06:07:28;;;;;;;8.98;5.55;;;;;;;33.41;28.44;94198.63;5088691;28;20049;-45
2021/06/21 06:09:57;;;;;;;6.88;4.85;;;;;;;32.84;29.39;94199.63;5077034;28;20374;-46
2021/06/21 06:12:24;;;;;;;10.00;5.47;;;;;;;33.03;29.26;94202.09;5086607;28;20050;-59
2021/06/21 06:14:52;;;;;;;6.30;5.70;;;;;;;32.98;29.13;94202.66;5094435;28;20040;-46
2021/06/21 06:17:19;;;;;;;8.55;6.13;;;;;;;33.25;29.08;94202.19;5091363;28;20055;-45
2021/06/21 06:19:46;;;;;;;7.80;5.60;;;;;;;33.59;28.41;94193.38;5098622;28;20361;-46
2021/06/21 06:22:13;;;;;;;7.70;6.18;;;;;;;33.72;27.88;94187.91;5098060;28;20052;-45
2021/06/21 06:24:41;;;;;;;16.90;14.25;;;;;;;33.49;28.27;94194.47;5090959;28;20044;-47
2021/06/21 06:27:08;;;;;;;23.20;19.15;;;;;;;33.02;29.84;94192.47;5096284;28;20086;-47
2021/06/21 06:29:35;;;;;;;10.63;9.25;;;;;;;32.69;30.13;94199.25;5080760;28;20055;-48
2021/06/21 06:32:03;;;;;;;10.48;9.05;;;;;;;33.88;28.27;94197.88;5082444;28;20051;-46
2021/06/21 06:34:31;;;;;;;10.65;8.38;;;;;;;32.86;30.60;94198.00;5098131;28;20051;-47
2021/06/21 06:36:58;;;;;;;10.40;7.68;;;;;;;32.22;31.34;94188.97;5090474;28;20083;-45
2021/06/21 06:39:25;;;;;;;15.07;6.85;;;;;;;33.34;29.76;94196.16;5077932;28;20052;-46
2021/06/21 06:41:53;;;;;;;9.48;7.10;;;;;;;32.71;31.11;94191.47;5092960;28;20386;-49
2021/06/21 06:44:20;;;;;;;9.70;7.18;;;;;;;33.65;29.15;94185.44;5096502;28;20071;-46
2021/06/21 06:46:47;;;;;;;10.80;8.00;;;;;;;33.42;29.41;94190.06;5087534;28;20463;-45
2021/06/21 06:49:14;;;;;;;9.65;7.63;;;;;;;33.24;30.48;94189.09;5097839;28;20056;-46
2021/06/21 06:51:43;;;;;;;13.13;10.18;;;;;;;33.71;29.21;94195.28;5098024;28;20394;-46
2021/06/21 06:59:34;;;;;;;13.68;7.50;;;;;;;34.59;27.31;94189.91;5097914;28;20400;-50
2021/06/21 07:02:10;;;;;;;8.70;6.70;;;;;;;34.70;28.79;94189.53;5084177;28;20048;-46
2021/06/21 07:04:38;;;;;;;9.93;7.20;;;;;;;34.88;27.97;94186.91;5077414;28;20059;-45
2021/06/21 07:07:06;;;;;;;17.83;8.77;;;;;;;34.40;28.39;94193.75;5085933;28;20047;-45
2021/06/21 07:09:35;;;;;;;10.30;7.60;;;;;;;33.61;29.99;94187.53;5085371;28;20056;-47
2021/06/21 07:12:03;;;;;;;8.10;6.50;;;;;;;34.06;28.90;94187.16;5077275;28;20044;-47
2021/06/21 07:14:30;;;;;;;7.90;5.88;;;;;;;34.57;28.62;94192.31;5077193;28;20056;-45
2021/06/21 07:16:57;;;;;;;6.60;5.72;;;;;;;34.40;28.89;94188.31;5083819;28;20079;-48
2021/06/21 07:19:24;;;;;;;8.80;5.68;;;;;;;35.22;28.60;94185.97;5084895;28;20051;-46
2021/06/21 07:21:52;;;;;;;11.02;8.63;;;;;;;34.48;29.46;94194.97;5075927;28;20044;-45
2021/06/21 07:24:19;;;;;;;8.77;5.60;;;;;;;34.70;29.05;94189.53;5077080;28;20060;-47
2021/06/21 07:26:48;;;;;;;8.93;5.03;;;;;;;34.65;29.18;94192.81;5082621;28;20054;-45
2021/06/21 07:29:16;;;;;;;10.00;4.70;;;;;;;35.16;28.24;94193.19;5097071;28;20548;-46
2021/06/21 07:31:43;;;;;;;9.43;4.90;;;;;;;34.63;29.69;94195.97;5097153;28;20044;-47
2021/06/21 07:34:11;;;;;;;6.38;4.28;;;;;;;35.50;28.22;94190.28;5092292;28;20060;-45
2021/06/21 07:36:38;;;;;;;11.73;4.97;;;;;;;35.21;28.96;94196.06;5079898;28;20047;-45
2021/06/21 07:39:07;;;;;;;7.25;6.03;;;;;;;35.49;29.01;94198.88;5097061;28;20438;-48
2021/06/21 07:41:34;;;;;;;8.45;6.60;;;;;;;35.19;28.60;94192.28;5097046;28;20051;-47
2021/06/21 07:44:02;;;;;;;7.07;4.60;;;;;;;35.04;29.00;94194.81;5096727;28;20398;-45
2021/06/21 07:46:31;;;;;;;6.65;4.43;;;;;;;34.86;29.43;94192.00;5079026;28;20358;-46
2021/06/21 07:48:59;;;;;;;6.30;4.38;;;;;;;35.13;29.69;94191.34;5091717;28;20044;-46
2021/06/21 07:51:27;;;;;;;5.43;4.40;;;;;;;34.63;30.30;94193.25;5076663;28;20048;-46
2021/06/21 07:53:54;;;;;;;9.95;5.07;;;;;;;35.19;29.45;94195.00;5076332;28;20047;-45
2021/06/21 07:56:22;;;;;;;4.68;3.83;;;;;;;35.28;29.45;94189.59;5079623;28;20048;-49
2021/06/21 07:58:49;;;;;;;6.68;4.20;;;;;;;35.45;28.46;94190.88;5078666;28;20362;-46
2021/06/21 08:01:17;;;;;;;6.13;3.58;;;;;;;35.70;29.01;94183.66;5096610;28;20343;-47
2021/06/21 08:03:45;;;;;;;4.78;3.92;;;;;;;35.49;28.81;94177.88;5096607;28;20048;-47
2021/06/21 08:06:12;;;;;;;7.25;4.25;;;;;;;36.24;27.93;94188.34;5086116;28;20052;-46
2021/06/21 08:08:40;;;;;;;6.93;3.70;;;;;;;36.02;27.93;94179.59;5093908;28;20044;-45
2021/06/21 08:11:11;;;;;;;8.30;3.72;;;;;;;36.33;28.31;94176.69;5096428;28;20473;-45
2021/06/21 08:13:38;;;;;;;5.25;3.63;;;;;;;36.68;27.96;94180.53;5092430;28;20051;-46
2021/06/21 08:16:06;;;;;;;5.55;3.40;;;;;;;36.43;27.92;94191.78;5075965;28;20044;-47
2021/06/21 08:18:33;;;;;;;14.68;11.65;;;;;;;36.55;27.98;94184.66;5091832;28;20070;-47
2021/06/21 08:21:00;;;;;;;7.63;6.28;;;;;;;36.29;27.81;94192.41;5096249;28;20044;-45
2021/06/21 08:23:30;;;;;;;3.97;3.40;;;;;;;36.74;26.06;94183.41;5096136;28;20051;-46
2021/06/21 08:25:57;;;;;;;6.03;2.53;;;;;;;36.77;26.52;94192.63;5096022;28;20044;-46
2021/06/21 08:28:24;;;;;;;4.82;2.75;;;;;;;36.52;25.73;94185.59;5098859;28;20051;-46
2021/06/21 08:30:51;;;;;;;4.47;2.88;;;;;;;37.03;24.03;94182.84;5095985;28;20044;-46
2021/06/21 08:33:19;;;;;;;5.20;2.60;;;;;;;36.69;25.48;94181.28;5075719;28;20490;-47
2021/06/21 08:35:46;;;;;;;4.80;2.78;;;;;;;36.81;25.66;94180.38;5075607;28;20055;-46
2021/06/21 08:38:13;;;;;;;4.38;2.90;;;;;;;36.92;26.12;94182.59;5087379;28;20557;-46
2021/06/21 08:40:40;;;;;;;7.60;5.40;;;;;;;37.39;25.19;94175.72;5095242;28;20051;-46
2021/06/21 08:43:07;;;;;;;16.70;15.13;;;;;;;37.91;24.58;94177.78;5093188;28;20048;-46
2021/06/21 08:45:35;;;;;;;17.90;10.23;;;;;;;36.99;25.01;94174.09;5075437;28;20048;-50
2021/06/21 08:48:07;;;;;;;4.32;3.35;;;;;;;37.03;25.36;94166.50;5085774;28;20040;-48
2021/06/21 08:50:36;;;;;;;3.17;2.50;;;;;;;37.05;26.19;94169.53;5095843;28;20051;-48
2021/06/21 08:53:03;;;;;;;3.35;2.60;;;;;;;36.90;25.55;94185.00;5077462;28;20040;-46
2021/06/21 08:55:30;;;;;;;2.95;2.50;;;;;;;37.63;24.90;94173.72;5095518;28;20040;-45
2021/06/21 08:57:58;;;;;;;3.25;2.55;;;;;;;37.30;25.99;94180.00;5096862;28;20066;-50
2021/06/21 09:00:25;;;;;;;3.65;2.72;;;;;;;37.24;24.85;94173.66;5095602;28;20474;-45
2021/06/21 09:02:53;;;;;;;5.93;2.50;;;;;;;37.28;25.21;94177.00;5095113;28;20443;-46
2021/06/21 09:05:20;;;;;;;3.65;2.65;;;;;;;37.56;24.88;94176.81;5077432;28;20051;-46
2021/06/21 09:07:49;;;;;;;3.17;2.88;;;;;;;37.62;24.35;94172.22;5095045;28;20056;-46
2021/06/21 09:10:38;;;;;;;2.35;2.15;;;;;;;37.35;23.64;94171.19;5077393;28;20051;-46
2021/06/21 09:13:05;;;;;;;4.40;2.15;;;;;;;37.14;24.04;94183.09;5095147;28;20340;-47
2021/06/21 09:15:34;;;;;;;3.85;2.28;;;;;;;37.16;24.52;94180.66;5095148;28;20043;-48
2021/06/21 09:18:34;;;;;;;2.50;2.30;;;;;;;37.43;25.08;94181.75;5094856;28;20040;-47
2021/06/21 09:21:27;;;;;;;12.40;10.70;;;;;;;37.29;24.77;94173.06;5095210;28;20392;-50
2021/06/21 09:23:57;;;;;;;6.35;3.85;;;;;;;37.85;23.62;94181.63;5094970;28;20048;-53
2021/06/21 09:26:27;;;;;;;8.82;8.02;;;;;;;38.05;22.70;94179.03;5096028;28;20047;-48
2021/06/21 09:28:56;;;;;;;6.55;5.95;;;;;;;38.86;22.30;94170.50;5091319;28;20040;-51
2021/06/21 09:31:25;;;;;;;3.78;2.70;;;;;;;37.62;24.34;94172.97;5094366;28;20348;-47
2021/06/21 09:33:54;;;;;;;3.78;3.05;;;;;;;38.07;23.80;94173.88;5074715;28;20043;-50
2021/06/21 09:36:34;;;;;;;23.45;4.10;;;;;;;38.00;23.62;94166.06;5074766;28;20052;-52
2021/06/21 09:39:19;;;;;;;3.47;2.50;;;;;;;37.81;24.40;94172.88;5075865;28;20045;-46
2021/06/21 09:42:24;;;;;;;4.00;2.28;;;;;;;38.09;22.81;94176.88;5077551;28;21090;-47
2021/06/21 09:45:00;;;;;;;3.17;2.42;;;;;;;38.33;22.81;94174.09;5094124;28;20063;-47
2021/06/21 09:47:35;;;;;;;4.15;2.50;;;;;;;38.46;23.29;94169.09;5076830;28;20067;-46
2021/06/21 09:50:18;;;;;;;10.70;9.07;;;;;;;38.46;22.58;94166.38;5094704;28;20040;-47
2021/06/21 09:52:51;;;;;;;8.60;3.80;;;;;;;38.29;23.30;94162.63;5094490;28;20048;-46
2021/06/21 09:55:25;;;;;;;4.70;2.20;;;;;;;38.03;22.01;94162.38;5094647;28;20046;-48
2021/06/21 09:58:09;;;;;;;4.68;2.30;;;;;;;37.93;22.16;94164.41;5100405;28;20442;-47
2021/06/21 10:00:44;;;;;;;2.78;2.17;;;;;;;37.96;22.44;94163.47;5095027;28;20040;-47
2021/06/21 10:03:13;;;;;;;2.65;1.75;;;;;;;38.10;22.29;94162.00;5094310;28;20040;-46
2021/06/21 10:06:00;;;;;;;3.33;1.90;;;;;;;37.93;22.43;94156.25;5094511;28;20048;-45
2021/06/21 10:08:48;;;;;;;1.90;1.80;;;;;;;38.14;21.58;94156.38;5094314;28;20051;-48
2021/06/21 10:11:34;;;;;;;2.70;1.90;;;;;;;38.23;22.20;94153.56;5094600;28;20063;-47
2021/06/21 10:14:02;;;;;;;2.47;1.90;;;;;;;38.50;21.87;94150.53;5094440;28;20036;-46
2021/06/21 10:16:30;;;;;;;6.28;1.73;;;;;;;38.47;20.53;94150.75;5094482;28;20406;-48
2021/06/21 10:18:57;;;;;;;3.40;1.63;;;;;;;38.95;19.88;94148.53;5089495;28;20484;-48
2021/06/21 10:21:26;;;;;;;3.28;1.73;;;;;;;38.59;21.40;94151.69;5074273;28;20052;-48
2021/06/21 10:23:54;;;;;;;2.22;1.50;;;;;;;38.33;21.52;94157.72;5093235;28;20051;-48
2021/06/21 10:26:21;;;;;;;3.45;1.75;;;;;;;38.24;20.92;94157.78;5076420;28;20041;-46
2021/06/21 10:28:50;;;;;;;4.07;1.98;;;;;;;38.62;21.40;94150.75;5083163;28;20040;-46
2021/06/21 10:31:21;;;;;;;1.73;1.63;;;;;;;38.47;21.82;94148.75;5094371;28;20044;-47
2021/06/21 10:33:49;;;;;;;3.13;1.75;;;;;;;37.94;22.35;94152.28;5094013;28;20054;-48
2021/06/21 10:36:16;;;;;;;2.85;1.77;;;;;;;37.78;21.41;94158.19;5094315;28;20442;-46
2021/06/21 10:38:43;;;;;;;3.10;1.75;;;;;;;38.26;21.63;94152.66;5094015;28;20471;-47
2021/06/21 10:41:11;;;;;;;2.38;1.52;;;;;;;38.12;21.59;94158.81;5094345;28;20059;-46
2021/06/21 10:43:43;;;;;;;2.50;1.90;;;;;;;38.35;22.22;94157.25;5093747;28;20059;-49
2021/06/21 10:46:30;;;;;;;6.10;2.10;;;;;;;38.40;22.27;94146.41;5093435;28;20051;-47
2021/06/21 10:48:57;;;;;;;2.22;1.80;;;;;;;38.39;21.10;94144.91;5089281;28;20052;-47
2021/06/21 10:51:34;;;;;;;1.73;1.60;;;;;;;38.49;21.60;94145.56;5094272;28;20047;-49
2021/06/21 10:54:03;;;;;;;5.05;1.92;;;;;;;38.51;21.11;94145.84;5093384;28;20052;-48
2021/06/21 10:56:44;;;;;;;1.85;1.48;;;;;;;38.37;20.55;94135.69;5099468;28;20052;-48
2021/06/21 10:59:15;;;;;;;2.10;1.60;;;;;;;38.48;21.41;94128.44;5102421;28;20044;-48
2021/06/21 11:01:48;;;;;;;4.28;2.08;;;;;;;38.41;20.66;94125.34;5098179;28;20055;-46
2021/06/21 11:04:38;;;;;;;3.65;1.50;;;;;;;38.60;21.42;94131.34;5097098;28;20051;-48
2021/06/21 11:07:15;;;;;;;1.98;1.60;;;;;;;38.45;21.17;94126.66;5085362;28;20056;-47
2021/06/21 11:09:42;;;;;;;3.33;1.50;;;;;;;38.30;21.35;94117.72;5096732;28;20059;-47
2021/06/21 11:12:36;;;;;;;2.08;1.60;;;;;;;38.21;21.44;94128.72;5097595;28;20051;-48
2021/06/21 11:15:15;;;;;;;2.10;1.50;;;;;;;38.28;21.69;94120.19;5094457;28;20040;-48
2021/06/21 11:17:56;;;;;;;6.07;5.50;;;;;;;38.20;20.66;94116.31;5097558;28;20451;-46
2021/06/21 11:20:33;;;;;;;8.73;7.85;;;;;;;38.24;21.62;94111.41;5097837;28;20482;-46
2021/06/21 11:23:02;;;;;;;8.48;4.05;;;;;;;36.73;22.62;94117.28;5095778;28;20402;-47
2021/06/21 11:25:33;;;;;;;3.40;1.90;;;;;;;37.72;21.84;94119.16;5076998;28;20051;-47
2021/06/21 11:28:01;;;;;;;4.18;1.85;;;;;;;38.02;20.58;94127.38;5087645;28;20469;-46
2021/06/21 11:30:39;;;;;;;2.38;1.48;;;;;;;38.10;21.07;94112.16;5087253;28;20051;-49
2021/06/21 11:33:09;;;;;;;1.75;1.27;;;;;;;38.44;19.77;94113.47;5077081;28;20051;-49
2021/06/21 11:35:54;;;;;;;6.83;1.30;;;;;;;38.16;19.45;94110.25;5097161;28;20056;-49
2021/06/21 11:38:32;;;;;;;2.92;1.40;;;;;;;38.30;19.96;94103.31;5096831;28;20059;-46
2021/06/21 11:41:28;;;;;;;2.55;1.10;;;;;;;38.43;19.09;94111.97;5097221;28;20051;-48
2021/06/21 11:43:58;;;;;;;3.58;1.10;;;;;;;38.47;18.59;94113.28;5096465;28;20048;-46
2021/06/21 11:55:50;;;;;;;3.72;1.65;;;;;;;31.80;27.87;94112.53;5147313;27;20359;-52
2021/06/21 11:58:25;;;;;;;2.35;1.60;;;;;;;32.23;26.85;94112.06;5130576;27;20043;-50
2021/06/21 12:00:52;;;;;;;1.50;1.30;;;;;;;35.15;23.17;94110.19;5126677;28;20043;-47